sensor_id;sensor_type;location;lat;lon;timestamp;temperature;humidity
15328;DHT22;7764;51.430;6.840;2024-01-07T00:02:20;3.60;99.90
15328;DHT22;7764;51.430;6.840;2024-01-07T00:04:48;3.60;99.90
15328;DHT22;7764;51.430;6.840;2024-01-07T00:07:15;3.60;99.90
15328;DHT22;7764;51.430;6.840;2024-01-07T00:09:41;3.60;99.90
15328;DHT22;7764;51.430;6.840;2024-01-07T00:12:08;3.60;99.90
15328;DHT22;7764;51.430;6.840;2024-01-07T00:14:35;3.60;99.90
15328;DHT22;7764;51.430;6.840;2024-01-07T00:17:02;3.60;99.90
15328;DHT22;7764;51.430;6.840;2024-01-07T00:19:29;3.60;99.90
15328;DHT22;7764;51.430;6.840;2024-01-07T00:21:58;3.60;99.90
15328;DHT22;7764;51.430;6.840;2024-01-07T00:24:25;3.60;99.90
15328;DHT22;7764;51.430;6.840;2024-01-07T00:26:54;3.60;99.90
15328;DHT22;7764;51.430;6.840;2024-01-07T00:29:21;3.60;99.90
15328;DHT22;7764;51.430;6.840;2024-01-07T00:31:48;3.60;99.90
15328;DHT22;7764;51.430;6.840;2024-01-07T00:34:14;3.60;99.90
15328;DHT22;7764;51.430;6.840;2024-01-07T00:36:41;3.60;99.90
15328;DHT22;7764;51.430;6.840;2024-01-07T00:39:09;3.60;99.90
15328;DHT22;7764;51.430;6.840;2024-01-07T00:41:36;3.60;99.90
15328;DHT22;7764;51.430;6.840;2024-01-07T00:44:03;3.60;99.90
15328;DHT22;7764;51.430;6.840;2024-01-07T00:46:30;3.60;99.90
15328;DHT22;7764;51.430;6.840;2024-01-07T00:48:57;3.60;99.90
15328;DHT22;7764;51.430;6.840;2024-01-07T00:51:24;3.60;99.90
15328;DHT22;7764;51.430;6.840;2024-01-07T00:53:50;3.60;99.90
15328;DHT22;7764;51.430;6.840;2024-01-07T00:56:18;3.70;99.90
15328;DHT22;7764;51.430;6.840;2024-01-07T00:58:45;3.70;99.90
15328;DHT22;7764;51.430;6.840;2024-01-07T01:01:12;3.60;99.90
15328;DHT22;7764;51.430;6.840;2024-01-07T01:03:39;3.60;99.90
15328;DHT22;7764;51.430;6.840;2024-01-07T01:06:06;3.60;99.90
15328;DHT22;7764;51.430;6.840;2024-01-07T01:08:32;3.60;99.90
15328;DHT22;7764;51.430;6.840;2024-01-07T01:10:59;3.60;99.90
15328;DHT22;7764;51.430;6.840;2024-01-07T01:13:27;3.50;99.90
15328;DHT22;7764;51.430;6.840;2024-01-07T01:15:54;3.50;99.90
15328;DHT22;7764;51.430;6.840;2024-01-07T01:18:21;3.40;99.90
15328;DHT22;7764;51.430;6.840;2024-01-07T01:20:48;3.50;99.90
15328;DHT22;7764;51.430;6.840;2024-01-07T01:23:15;3.50;99.90
15328;DHT22;7764;51.430;6.840;2024-01-07T01:25:42;3.40;99.90
15328;DHT22;7764;51.430;6.840;2024-01-07T01:28:09;3.40;99.90
15328;DHT22;7764;51.430;6.840;2024-01-07T01:30:37;3.40;99.90
15328;DHT22;7764;51.430;6.840;2024-01-07T01:33:04;3.40;99.90
15328;DHT22;7764;51.430;6.840;2024-01-07T01:35:31;3.50;99.90
15328;DHT22;7764;51.430;6.840;2024-01-07T01:37:58;3.50;99.90
15328;DHT22;7764;51.430;6.840;2024-01-07T01:40:25;3.50;99.90
15328;DHT22;7764;51.430;6.840;2024-01-07T01:42:51;3.60;99.90
15328;DHT22;7764;51.430;6.840;2024-01-07T01:45:18;3.50;99.90
15328;DHT22;7764;51.430;6.840;2024-01-07T01:47:47;3.40;99.90
15328;DHT22;7764;51.430;6.840;2024-01-07T01:50:15;3.40;99.90
15328;DHT22;7764;51.430;6.840;2024-01-07T01:52:43;3.40;99.90
15328;DHT22;7764;51.430;6.840;2024-01-07T01:55:10;3.40;99.90
15328;DHT22;7764;51.430;6.840;2024-01-07T01:57:39;3.40;99.90
15328;DHT22;7764;51.430;6.840;2024-01-07T02:00:07;3.40;99.90
15328;DHT22;7764;51.430;6.840;2024-01-07T02:02:34;3.30;99.90
15328;DHT22;7764;51.430;6.840;2024-01-07T02:05:02;3.40;99.90
15328;DHT22;7764;51.430;6.840;2024-01-07T02:07:30;3.30;99.90
15328;DHT22;7764;51.430;6.840;2024-01-07T02:09:57;3.30;99.90
15328;DHT22;7764;51.430;6.840;2024-01-07T02:12:24;3.20;99.90
15328;DHT22;7764;51.430;6.840;2024-01-07T02:14:51;3.20;99.90
15328;DHT22;7764;51.430;6.840;2024-01-07T02:17:18;3.10;99.90
15328;DHT22;7764;51.430;6.840;2024-01-07T02:19:45;3.10;99.90
15328;DHT22;7764;51.430;6.840;2024-01-07T02:22:13;3.10;99.90
15328;DHT22;7764;51.430;6.840;2024-01-07T02:24:41;3.10;99.90
15328;DHT22;7764;51.430;6.840;2024-01-07T02:27:08;3.20;99.90
15328;DHT22;7764;51.430;6.840;2024-01-07T02:29:35;3.10;99.90
15328;DHT22;7764;51.430;6.840;2024-01-07T02:32:02;3.10;99.90
15328;DHT22;7764;51.430;6.840;2024-01-07T02:34:29;3.10;99.90
15328;DHT22;7764;51.430;6.840;2024-01-07T02:36:56;3.20;99.90
15328;DHT22;7764;51.430;6.840;2024-01-07T02:39:23;3.10;99.90
15328;DHT22;7764;51.430;6.840;2024-01-07T02:41:51;3.10;99.90
15328;DHT22;7764;51.430;6.840;2024-01-07T02:44:17;3.10;99.90
15328;DHT22;7764;51.430;6.840;2024-01-07T02:46:44;3.10;99.90
15328;DHT22;7764;51.430;6.840;2024-01-07T02:49:11;3.20;99.90
15328;DHT22;7764;51.430;6.840;2024-01-07T02:51:38;3.10;99.90
15328;DHT22;7764;51.430;6.840;2024-01-07T02:54:05;3.10;99.90
15328;DHT22;7764;51.430;6.840;2024-01-07T02:56:32;3.10;99.90
15328;DHT22;7764;51.430;6.840;2024-01-07T02:59:00;3.10;99.90
15328;DHT22;7764;51.430;6.840;2024-01-07T03:01:27;3.10;99.90
15328;DHT22;7764;51.430;6.840;2024-01-07T03:03:54;3.10;99.90
15328;DHT22;7764;51.430;6.840;2024-01-07T03:06:20;3.10;99.90
15328;DHT22;7764;51.430;6.840;2024-01-07T03:08:47;3.10;99.90
15328;DHT22;7764;51.430;6.840;2024-01-07T03:11:15;3.00;99.90
15328;DHT22;7764;51.430;6.840;2024-01-07T03:13:41;3.00;99.90
15328;DHT22;7764;51.430;6.840;2024-01-07T03:16:19;3.00;99.90
15328;DHT22;7764;51.430;6.840;2024-01-07T03:18:46;3.00;99.90
15328;DHT22;7764;51.430;6.840;2024-01-07T03:21:17;3.00;99.90
15328;DHT22;7764;51.430;6.840;2024-01-07T03:23:44;3.00;99.90
15328;DHT22;7764;51.430;6.840;2024-01-07T03:26:11;2.90;99.90
15328;DHT22;7764;51.430;6.840;2024-01-07T03:28:38;2.90;99.90
15328;DHT22;7764;51.430;6.840;2024-01-07T03:31:07;2.90;99.90
15328;DHT22;7764;51.430;6.840;2024-01-07T03:33:36;2.90;99.90
15328;DHT22;7764;51.430;6.840;2024-01-07T03:36:06;3.00;99.90
15328;DHT22;7764;51.430;6.840;2024-01-07T03:38:33;2.90;99.90
15328;DHT22;7764;51.430;6.840;2024-01-07T03:41:00;3.00;99.90
15328;DHT22;7764;51.430;6.840;2024-01-07T03:43:27;3.00;99.90
15328;DHT22;7764;51.430;6.840;2024-01-07T03:45:54;2.90;99.90
15328;DHT22;7764;51.430;6.840;2024-01-07T03:48:21;3.00;99.90
15328;DHT22;7764;51.430;6.840;2024-01-07T03:50:49;3.00;99.90
15328;DHT22;7764;51.430;6.840;2024-01-07T03:53:16;2.90;99.90
15328;DHT22;7764;51.430;6.840;2024-01-07T03:55:43;2.90;99.90
15328;DHT22;7764;51.430;6.840;2024-01-07T03:58:10;2.90;99.90
15328;DHT22;7764;51.430;6.840;2024-01-07T04:00:36;2.90;99.90
15328;DHT22;7764;51.430;6.840;2024-01-07T04:03:04;2.90;99.90
15328;DHT22;7764;51.430;6.840;2024-01-07T04:05:30;2.90;99.90
15328;DHT22;7764;51.430;6.840;2024-01-07T04:08:00;2.90;99.90
15328;DHT22;7764;51.430;6.840;2024-01-07T04:10:27;2.90;99.90
15328;DHT22;7764;51.430;6.840;2024-01-07T04:12:53;2.90;99.90
15328;DHT22;7764;51.430;6.840;2024-01-07T04:15:20;2.90;99.90
15328;DHT22;7764;51.430;6.840;2024-01-07T04:17:47;2.80;99.90
15328;DHT22;7764;51.430;6.840;2024-01-07T04:20:14;2.80;99.90
15328;DHT22;7764;51.430;6.840;2024-01-07T04:22:40;2.70;99.90
15328;DHT22;7764;51.430;6.840;2024-01-07T04:25:09;2.70;99.90
15328;DHT22;7764;51.430;6.840;2024-01-07T04:27:36;2.70;99.90
15328;DHT22;7764;51.430;6.840;2024-01-07T04:30:04;2.80;99.90
15328;DHT22;7764;51.430;6.840;2024-01-07T04:32:31;2.80;99.90
15328;DHT22;7764;51.430;6.840;2024-01-07T04:34:58;2.80;99.90
15328;DHT22;7764;51.430;6.840;2024-01-07T04:37:25;2.70;99.90
15328;DHT22;7764;51.430;6.840;2024-01-07T04:39:52;2.70;99.90
15328;DHT22;7764;51.430;6.840;2024-01-07T04:42:20;2.70;99.90
15328;DHT22;7764;51.430;6.840;2024-01-07T04:44:47;2.60;99.90
15328;DHT22;7764;51.430;6.840;2024-01-07T04:47:25;2.70;99.90
15328;DHT22;7764;51.430;6.840;2024-01-07T04:49:52;2.70;99.90
15328;DHT22;7764;51.430;6.840;2024-01-07T04:52:18;2.60;99.90
15328;DHT22;7764;51.430;6.840;2024-01-07T04:54:45;2.70;99.90
15328;DHT22;7764;51.430;6.840;2024-01-07T04:57:12;2.70;99.90
15328;DHT22;7764;51.430;6.840;2024-01-07T04:59:40;2.60;99.90
15328;DHT22;7764;51.430;6.840;2024-01-07T05:02:07;2.60;99.90
15328;DHT22;7764;51.430;6.840;2024-01-07T05:04:35;2.60;99.90
15328;DHT22;7764;51.430;6.840;2024-01-07T05:07:02;2.60;99.90
15328;DHT22;7764;51.430;6.840;2024-01-07T05:09:29;2.60;99.90
15328;DHT22;7764;51.430;6.840;2024-01-07T05:11:56;2.60;99.90
15328;DHT22;7764;51.430;6.840;2024-01-07T05:14:22;2.60;99.90
15328;DHT22;7764;51.430;6.840;2024-01-07T05:16:51;2.60;99.90
15328;DHT22;7764;51.430;6.840;2024-01-07T05:19:18;2.60;99.90
15328;DHT22;7764;51.430;6.840;2024-01-07T05:21:44;2.60;99.90
15328;DHT22;7764;51.430;6.840;2024-01-07T05:24:10;2.70;99.90
15328;DHT22;7764;51.430;6.840;2024-01-07T05:26:38;2.70;99.90
15328;DHT22;7764;51.430;6.840;2024-01-07T05:29:05;2.70;99.90
15328;DHT22;7764;51.430;6.840;2024-01-07T05:31:32;2.70;99.90
15328;DHT22;7764;51.430;6.840;2024-01-07T05:34:01;2.60;99.90
15328;DHT22;7764;51.430;6.840;2024-01-07T05:36:28;2.60;99.90
15328;DHT22;7764;51.430;6.840;2024-01-07T05:38:54;2.50;99.90
15328;DHT22;7764;51.430;6.840;2024-01-07T05:41:21;2.50;99.90
15328;DHT22;7764;51.430;6.840;2024-01-07T05:43:48;2.50;99.90
15328;DHT22;7764;51.430;6.840;2024-01-07T05:46:15;2.50;99.90
15328;DHT22;7764;51.430;6.840;2024-01-07T05:48:42;2.60;99.90
15328;DHT22;7764;51.430;6.840;2024-01-07T05:51:11;2.60;99.90
15328;DHT22;7764;51.430;6.840;2024-01-07T05:53:39;2.60;99.90
15328;DHT22;7764;51.430;6.840;2024-01-07T05:56:06;2.70;99.90
15328;DHT22;7764;51.430;6.840;2024-01-07T05:58:33;2.60;99.90
15328;DHT22;7764;51.430;6.840;2024-01-07T06:01:00;2.60;99.90
15328;DHT22;7764;51.430;6.840;2024-01-07T06:03:27;2.50;99.90
15328;DHT22;7764;51.430;6.840;2024-01-07T06:05:53;2.60;99.90
15328;DHT22;7764;51.430;6.840;2024-01-07T06:08:22;2.50;99.90
15328;DHT22;7764;51.430;6.840;2024-01-07T06:10:48;2.50;99.90
15328;DHT22;7764;51.430;6.840;2024-01-07T06:13:15;2.50;99.90
15328;DHT22;7764;51.430;6.840;2024-01-07T06:15:42;2.50;99.90
15328;DHT22;7764;51.430;6.840;2024-01-07T06:18:09;2.50;99.90
15328;DHT22;7764;51.430;6.840;2024-01-07T06:20:36;2.50;99.90
15328;DHT22;7764;51.430;6.840;2024-01-07T06:23:03;2.50;99.90
15328;DHT22;7764;51.430;6.840;2024-01-07T06:25:31;2.40;99.90
15328;DHT22;7764;51.430;6.840;2024-01-07T06:27:58;2.40;99.90
15328;DHT22;7764;51.430;6.840;2024-01-07T06:30:24;2.50;99.90
15328;DHT22;7764;51.430;6.840;2024-01-07T06:32:52;2.40;99.90
15328;DHT22;7764;51.430;6.840;2024-01-07T06:35:19;2.30;99.90
15328;DHT22;7764;51.430;6.840;2024-01-07T06:37:46;2.40;99.90
15328;DHT22;7764;51.430;6.840;2024-01-07T06:40:13;2.30;99.90
15328;DHT22;7764;51.430;6.840;2024-01-07T06:42:41;2.30;99.90
15328;DHT22;7764;51.430;6.840;2024-01-07T06:45:09;2.40;99.90
15328;DHT22;7764;51.430;6.840;2024-01-07T06:47:36;2.40;99.90
15328;DHT22;7764;51.430;6.840;2024-01-07T06:50:04;2.30;99.90
15328;DHT22;7764;51.430;6.840;2024-01-07T06:52:31;2.30;99.90
15328;DHT22;7764;51.430;6.840;2024-01-07T06:54:58;2.30;99.90
15328;DHT22;7764;51.430;6.840;2024-01-07T06:57:24;2.30;99.90
15328;DHT22;7764;51.430;6.840;2024-01-07T06:59:53;2.30;99.90
15328;DHT22;7764;51.430;6.840;2024-01-07T07:02:20;2.30;99.90
15328;DHT22;7764;51.430;6.840;2024-01-07T07:04:47;2.30;99.90
15328;DHT22;7764;51.430;6.840;2024-01-07T07:07:16;2.40;99.90
15328;DHT22;7764;51.430;6.840;2024-01-07T07:09:43;2.30;99.90
15328;DHT22;7764;51.430;6.840;2024-01-07T07:12:12;2.40;99.90
15328;DHT22;7764;51.430;6.840;2024-01-07T07:14:39;2.40;99.90
15328;DHT22;7764;51.430;6.840;2024-01-07T07:17:07;2.30;99.90
15328;DHT22;7764;51.430;6.840;2024-01-07T07:19:34;2.20;99.90
15328;DHT22;7764;51.430;6.840;2024-01-07T07:22:01;2.20;99.90
15328;DHT22;7764;51.430;6.840;2024-01-07T07:24:27;2.30;99.90
15328;DHT22;7764;51.430;6.840;2024-01-07T07:26:54;2.30;99.90
15328;DHT22;7764;51.430;6.840;2024-01-07T07:29:21;2.30;99.90
15328;DHT22;7764;51.430;6.840;2024-01-07T07:31:48;2.40;99.90
15328;DHT22;7764;51.430;6.840;2024-01-07T07:34:16;2.40;99.90
15328;DHT22;7764;51.430;6.840;2024-01-07T07:36:43;2.30;99.90
15328;DHT22;7764;51.430;6.840;2024-01-07T07:39:10;2.30;99.90
15328;DHT22;7764;51.430;6.840;2024-01-07T07:41:39;2.20;99.90
15328;DHT22;7764;51.430;6.840;2024-01-07T07:44:05;2.20;99.90
15328;DHT22;7764;51.430;6.840;2024-01-07T07:46:32;2.20;99.90
15328;DHT22;7764;51.430;6.840;2024-01-07T07:48:59;2.20;99.90
15328;DHT22;7764;51.430;6.840;2024-01-07T07:51:28;2.20;99.90
15328;DHT22;7764;51.430;6.840;2024-01-07T07:53:55;2.10;99.90
15328;DHT22;7764;51.430;6.840;2024-01-07T07:56:22;2.20;99.90
15328;DHT22;7764;51.430;6.840;2024-01-07T07:58:49;2.20;99.90
15328;DHT22;7764;51.430;6.840;2024-01-07T08:01:17;2.20;99.90
15328;DHT22;7764;51.430;6.840;2024-01-07T08:03:44;2.20;99.90
15328;DHT22;7764;51.430;6.840;2024-01-07T08:06:11;2.20;99.90
15328;DHT22;7764;51.430;6.840;2024-01-07T08:08:39;2.20;99.90
15328;DHT22;7764;51.430;6.840;2024-01-07T08:11:06;2.20;99.90
15328;DHT22;7764;51.430;6.840;2024-01-07T08:13:35;2.10;99.90
15328;DHT22;7764;51.430;6.840;2024-01-07T08:16:02;2.20;99.90
15328;DHT22;7764;51.430;6.840;2024-01-07T08:18:29;2.20;99.90
15328;DHT22;7764;51.430;6.840;2024-01-07T08:20:55;2.10;99.90
15328;DHT22;7764;51.430;6.840;2024-01-07T08:23:23;2.10;99.90
15328;DHT22;7764;51.430;6.840;2024-01-07T08:25:51;2.00;99.90
15328;DHT22;7764;51.430;6.840;2024-01-07T08:28:18;2.00;99.90
15328;DHT22;7764;51.430;6.840;2024-01-07T08:30:46;2.00;99.90
15328;DHT22;7764;51.430;6.840;2024-01-07T08:33:13;2.00;99.90
15328;DHT22;7764;51.430;6.840;2024-01-07T08:35:40;1.90;99.90
15328;DHT22;7764;51.430;6.840;2024-01-07T08:38:07;1.90;99.90
15328;DHT22;7764;51.430;6.840;2024-01-07T08:40:34;1.80;99.90
15328;DHT22;7764;51.430;6.840;2024-01-07T08:43:03;1.90;99.90
15328;DHT22;7764;51.430;6.840;2024-01-07T08:45:30;1.80;99.90
15328;DHT22;7764;51.430;6.840;2024-01-07T08:47:57;1.80;99.90
15328;DHT22;7764;51.430;6.840;2024-01-07T08:50:23;1.90;99.90
15328;DHT22;7764;51.430;6.840;2024-01-07T08:52:50;1.90;99.90
15328;DHT22;7764;51.430;6.840;2024-01-07T08:55:17;2.00;99.90
15328;DHT22;7764;51.430;6.840;2024-01-07T08:57:44;2.00;99.90
15328;DHT22;7764;51.430;6.840;2024-01-07T09:00:17;2.00;99.90
15328;DHT22;7764;51.430;6.840;2024-01-07T09:02:45;2.00;99.90
15328;DHT22;7764;51.430;6.840;2024-01-07T09:05:12;2.00;99.90
15328;DHT22;7764;51.430;6.840;2024-01-07T09:07:39;2.00;99.90
15328;DHT22;7764;51.430;6.840;2024-01-07T09:10:06;2.00;99.90
15328;DHT22;7764;51.430;6.840;2024-01-07T09:12:36;2.10;99.90
15328;DHT22;7764;51.430;6.840;2024-01-07T09:15:04;2.10;99.90
15328;DHT22;7764;51.430;6.840;2024-01-07T09:17:34;2.00;99.90
15328;DHT22;7764;51.430;6.840;2024-01-07T09:20:02;2.00;99.90
15328;DHT22;7764;51.430;6.840;2024-01-07T09:22:30;2.00;99.90
15328;DHT22;7764;51.430;6.840;2024-01-07T09:24:57;2.00;99.90
15328;DHT22;7764;51.430;6.840;2024-01-07T09:27:24;2.00;99.90
15328;DHT22;7764;51.430;6.840;2024-01-07T09:29:50;2.00;99.90
15328;DHT22;7764;51.430;6.840;2024-01-07T09:32:18;2.00;99.90
15328;DHT22;7764;51.430;6.840;2024-01-07T09:34:46;1.90;99.90
15328;DHT22;7764;51.430;6.840;2024-01-07T09:37:13;2.00;99.90
15328;DHT22;7764;51.430;6.840;2024-01-07T09:39:40;2.00;99.90
15328;DHT22;7764;51.430;6.840;2024-01-07T09:42:08;2.00;99.90
15328;DHT22;7764;51.430;6.840;2024-01-07T09:44:38;2.00;99.90
15328;DHT22;7764;51.430;6.840;2024-01-07T09:47:05;2.00;99.90
15328;DHT22;7764;51.430;6.840;2024-01-07T09:49:33;2.00;99.90
15328;DHT22;7764;51.430;6.840;2024-01-07T09:52:04;1.90;99.90
15328;DHT22;7764;51.430;6.840;2024-01-07T09:54:31;1.90;99.90
15328;DHT22;7764;51.430;6.840;2024-01-07T09:57:01;2.00;99.90
15328;DHT22;7764;51.430;6.840;2024-01-07T09:59:28;1.90;99.90
15328;DHT22;7764;51.430;6.840;2024-01-07T10:01:55;2.00;99.90
15328;DHT22;7764;51.430;6.840;2024-01-07T10:04:22;1.90;99.90
15328;DHT22;7764;51.430;6.840;2024-01-07T10:06:49;1.90;99.90
15328;DHT22;7764;51.430;6.840;2024-01-07T10:09:19;1.90;99.90
15328;DHT22;7764;51.430;6.840;2024-01-07T10:11:46;1.90;99.90
15328;DHT22;7764;51.430;6.840;2024-01-07T10:14:12;2.00;99.90
15328;DHT22;7764;51.430;6.840;2024-01-07T10:16:39;1.90;99.90
15328;DHT22;7764;51.430;6.840;2024-01-07T10:19:07;1.80;99.90
15328;DHT22;7764;51.430;6.840;2024-01-07T10:21:34;1.80;99.90
15328;DHT22;7764;51.430;6.840;2024-01-07T10:24:07;1.90;99.90
15328;DHT22;7764;51.430;6.840;2024-01-07T10:26:37;2.00;99.90
15328;DHT22;7764;51.430;6.840;2024-01-07T10:29:04;1.90;99.90
15328;DHT22;7764;51.430;6.840;2024-01-07T10:31:32;2.00;99.90
15328;DHT22;7764;51.430;6.840;2024-01-07T10:33:59;2.10;99.90
15328;DHT22;7764;51.430;6.840;2024-01-07T10:36:25;2.00;99.90
15328;DHT22;7764;51.430;6.840;2024-01-07T10:38:53;2.00;99.90
15328;DHT22;7764;51.430;6.840;2024-01-07T10:41:21;2.00;99.90
15328;DHT22;7764;51.430;6.840;2024-01-07T10:43:50;2.00;99.90
15328;DHT22;7764;51.430;6.840;2024-01-07T10:46:17;2.00;99.90
15328;DHT22;7764;51.430;6.840;2024-01-07T10:48:51;2.00;99.90
15328;DHT22;7764;51.430;6.840;2024-01-07T10:51:21;2.00;99.90
15328;DHT22;7764;51.430;6.840;2024-01-07T10:53:52;2.00;99.90
15328;DHT22;7764;51.430;6.840;2024-01-07T10:56:22;2.00;99.90
15328;DHT22;7764;51.430;6.840;2024-01-07T10:58:53;2.00;99.90
15328;DHT22;7764;51.430;6.840;2024-01-07T11:01:20;2.00;99.90
15328;DHT22;7764;51.430;6.840;2024-01-07T11:03:51;2.00;99.90
15328;DHT22;7764;51.430;6.840;2024-01-07T11:06:27;1.90;99.90
15328;DHT22;7764;51.430;6.840;2024-01-07T11:08:58;1.90;99.90
15328;DHT22;7764;51.430;6.840;2024-01-07T11:11:26;1.90;99.90
15328;DHT22;7764;51.430;6.840;2024-01-07T11:13:55;1.70;99.90
15328;DHT22;7764;51.430;6.840;2024-01-07T11:16:43;1.70;99.90
15328;DHT22;7764;51.430;6.840;2024-01-07T11:19:13;1.80;99.90
15328;DHT22;7764;51.430;6.840;2024-01-07T11:21:40;1.80;99.90
15328;DHT22;7764;51.430;6.840;2024-01-07T11:24:07;1.80;99.90
15328;DHT22;7764;51.430;6.840;2024-01-07T11:26:34;1.80;99.90
15328;DHT22;7764;51.430;6.840;2024-01-07T11:29:02;1.70;99.90
15328;DHT22;7764;51.430;6.840;2024-01-07T11:31:44;1.80;99.90
15328;DHT22;7764;51.430;6.840;2024-01-07T11:34:40;1.90;99.90
15328;DHT22;7764;51.430;6.840;2024-01-07T11:37:10;1.90;99.90
15328;DHT22;7764;51.430;6.840;2024-01-07T11:39:38;2.00;99.90
15328;DHT22;7764;51.430;6.840;2024-01-07T11:42:05;2.00;99.90
15328;DHT22;7764;51.430;6.840;2024-01-07T11:44:35;1.90;99.90
15328;DHT22;7764;51.430;6.840;2024-01-07T11:47:03;1.80;99.90
15328;DHT22;7764;51.430;6.840;2024-01-07T11:49:32;1.70;99.90
15328;DHT22;7764;51.430;6.840;2024-01-07T11:51:58;1.70;99.90
15328;DHT22;7764;51.430;6.840;2024-01-07T11:54:27;1.60;99.90
15328;DHT22;7764;51.430;6.840;2024-01-07T11:56:54;1.70;99.90
15328;DHT22;7764;51.430;6.840;2024-01-07T11:59:21;1.60;99.90
15328;DHT22;7764;51.430;6.840;2024-01-07T12:01:50;1.70;99.90
15328;DHT22;7764;51.430;6.840;2024-01-07T12:04:17;1.70;99.90
15328;DHT22;7764;51.430;6.840;2024-01-07T12:06:44;1.70;99.90
15328;DHT22;7764;51.430;6.840;2024-01-07T12:09:12;1.70;99.90
15328;DHT22;7764;51.430;6.840;2024-01-07T12:11:39;1.70;99.90
15328;DHT22;7764;51.430;6.840;2024-01-07T12:14:06;1.70;99.90
15328;DHT22;7764;51.430;6.840;2024-01-07T12:16:34;1.60;99.90
15328;DHT22;7764;51.430;6.840;2024-01-07T12:19:02;1.70;99.90
15328;DHT22;7764;51.430;6.840;2024-01-07T12:21:29;1.70;99.90
15328;DHT22;7764;51.430;6.840;2024-01-07T12:23:57;1.60;99.90
15328;DHT22;7764;51.430;6.840;2024-01-07T12:26:26;1.50;99.90
15328;DHT22;7764;51.430;6.840;2024-01-07T12:28:54;1.50;99.90
15328;DHT22;7764;51.430;6.840;2024-01-07T12:31:22;1.50;99.90
15328;DHT22;7764;51.430;6.840;2024-01-07T12:33:50;1.40;99.90
15328;DHT22;7764;51.430;6.840;2024-01-07T12:36:21;1.40;99.90
15328;DHT22;7764;51.430;6.840;2024-01-07T16:15:41;1.60;99.90
15328;DHT22;7764;51.430;6.840;2024-01-07T16:18:07;1.90;99.90
15328;DHT22;7764;51.430;6.840;2024-01-07T16:20:36;1.70;99.90
15328;DHT22;7764;51.430;6.840;2024-01-07T16:23:03;1.70;99.90
15328;DHT22;7764;51.430;6.840;2024-01-07T16:25:30;2.00;99.90
15328;DHT22;7764;51.430;6.840;2024-01-07T16:27:57;1.70;99.90
15328;DHT22;7764;51.430;6.840;2024-01-07T16:30:24;1.70;99.90
15328;DHT22;7764;51.430;6.840;2024-01-07T16:32:51;1.70;99.90
15328;DHT22;7764;51.430;6.840;2024-01-07T16:35:18;1.90;99.90
15328;DHT22;7764;51.430;6.840;2024-01-07T16:37:46;1.90;99.90
15328;DHT22;7764;51.430;6.840;2024-01-07T16:40:13;1.90;99.90
15328;DHT22;7764;51.430;6.840;2024-01-07T16:42:40;1.90;99.90
15328;DHT22;7764;51.430;6.840;2024-01-07T16:45:09;1.80;99.90
15328;DHT22;7764;51.430;6.840;2024-01-07T16:47:36;1.90;99.90
15328;DHT22;7764;51.430;6.840;2024-01-07T16:50:04;1.70;99.90
15328;DHT22;7764;51.430;6.840;2024-01-07T16:52:31;2.00;99.90
15328;DHT22;7764;51.430;6.840;2024-01-07T16:54:59;1.70;99.90
15328;DHT22;7764;51.430;6.840;2024-01-07T16:57:26;2.00;99.90
15328;DHT22;7764;51.430;6.840;2024-01-07T16:59:53;1.60;99.90
15328;DHT22;7764;51.430;6.840;2024-01-07T17:02:20;1.60;99.90
15328;DHT22;7764;51.430;6.840;2024-01-07T17:04:46;1.70;99.90
15328;DHT22;7764;51.430;6.840;2024-01-07T17:07:13;1.90;99.90
15328;DHT22;7764;51.430;6.840;2024-01-07T17:09:40;1.90;99.90
15328;DHT22;7764;51.430;6.840;2024-01-07T17:12:10;1.60;99.90
15328;DHT22;7764;51.430;6.840;2024-01-07T17:14:37;1.80;99.90
15328;DHT22;7764;51.430;6.840;2024-01-07T17:17:04;1.50;99.90
15328;DHT22;7764;51.430;6.840;2024-01-07T17:19:31;1.50;99.90
15328;DHT22;7764;51.430;6.840;2024-01-07T17:21:58;1.80;99.90
15328;DHT22;7764;51.430;6.840;2024-01-07T17:24:24;1.50;99.90
15328;DHT22;7764;51.430;6.840;2024-01-07T17:26:51;1.60;99.90
15328;DHT22;7764;51.430;6.840;2024-01-07T17:29:19;1.60;99.90
15328;DHT22;7764;51.430;6.840;2024-01-07T17:31:46;1.60;99.90
15328;DHT22;7764;51.430;6.840;2024-01-07T17:34:13;1.50;99.90
15328;DHT22;7764;51.430;6.840;2024-01-07T17:36:40;1.70;99.90
15328;DHT22;7764;51.430;6.840;2024-01-07T17:39:07;1.40;99.90
15328;DHT22;7764;51.430;6.840;2024-01-07T17:41:35;1.60;99.90
15328;DHT22;7764;51.430;6.840;2024-01-07T17:44:03;1.60;99.90
15328;DHT22;7764;51.430;6.840;2024-01-07T17:46:31;1.40;99.90
15328;DHT22;7764;51.430;6.840;2024-01-07T17:48:58;1.60;99.90
15328;DHT22;7764;51.430;6.840;2024-01-07T17:51:25;1.60;99.90
15328;DHT22;7764;51.430;6.840;2024-01-07T17:53:56;1.20;99.90
15328;DHT22;7764;51.430;6.840;2024-01-07T17:56:23;1.50;99.90
15328;DHT22;7764;51.430;6.840;2024-01-07T17:58:51;1.30;99.90
15328;DHT22;7764;51.430;6.840;2024-01-07T18:01:18;1.40;99.90
15328;DHT22;7764;51.430;6.840;2024-01-07T18:03:46;1.40;99.90
15328;DHT22;7764;51.430;6.840;2024-01-07T18:06:13;1.30;99.90
15328;DHT22;7764;51.430;6.840;2024-01-07T18:08:41;1.30;99.90
15328;DHT22;7764;51.430;6.840;2024-01-07T18:11:07;1.10;99.90
15328;DHT22;7764;51.430;6.840;2024-01-07T18:13:34;1.20;99.90
15328;DHT22;7764;51.430;6.840;2024-01-07T18:16:01;1.20;99.90
15328;DHT22;7764;51.430;6.840;2024-01-07T18:18:28;1.20;99.90
15328;DHT22;7764;51.430;6.840;2024-01-07T18:20:56;1.00;99.90
15328;DHT22;7764;51.430;6.840;2024-01-07T18:23:23;1.00;99.90
15328;DHT22;7764;51.430;6.840;2024-01-07T18:25:50;1.00;99.90
15328;DHT22;7764;51.430;6.840;2024-01-07T18:28:17;1.10;99.90
15328;DHT22;7764;51.430;6.840;2024-01-07T18:30:44;0.90;99.90
15328;DHT22;7764;51.430;6.840;2024-01-07T18:33:11;1.00;99.90
15328;DHT22;7764;51.430;6.840;2024-01-07T18:35:38;0.90;99.90
15328;DHT22;7764;51.430;6.840;2024-01-07T18:38:08;0.80;99.90
15328;DHT22;7764;51.430;6.840;2024-01-07T18:40:35;0.70;99.90
15328;DHT22;7764;51.430;6.840;2024-01-07T18:43:04;0.80;99.90
15328;DHT22;7764;51.430;6.840;2024-01-07T18:45:31;0.70;99.90
15328;DHT22;7764;51.430;6.840;2024-01-07T18:48:01;0.70;99.90
15328;DHT22;7764;51.430;6.840;2024-01-07T18:50:28;0.60;99.90
15328;DHT22;7764;51.430;6.840;2024-01-07T18:52:55;0.80;99.90
15328;DHT22;7764;51.430;6.840;2024-01-07T18:55:23;0.40;99.90
15328;DHT22;7764;51.430;6.840;2024-01-07T18:57:50;0.70;99.90
15328;DHT22;7764;51.430;6.840;2024-01-07T19:00:17;0.50;99.90
15328;DHT22;7764;51.430;6.840;2024-01-07T19:02:43;0.50;99.90
15328;DHT22;7764;51.430;6.840;2024-01-07T19:05:10;0.50;99.90
15328;DHT22;7764;51.430;6.840;2024-01-07T19:07:37;0.70;99.90
15328;DHT22;7764;51.430;6.840;2024-01-07T19:10:07;0.70;99.90
15328;DHT22;7764;51.430;6.840;2024-01-07T19:12:35;0.50;99.90
15328;DHT22;7764;51.430;6.840;2024-01-07T19:15:03;0.50;99.90
15328;DHT22;7764;51.430;6.840;2024-01-07T19:17:30;0.40;99.90
15328;DHT22;7764;51.430;6.840;2024-01-07T19:19:56;0.50;99.90
15328;DHT22;7764;51.430;6.840;2024-01-07T19:22:24;0.50;99.90
15328;DHT22;7764;51.430;6.840;2024-01-07T19:24:51;0.40;99.90
15328;DHT22;7764;51.430;6.840;2024-01-07T19:27:18;0.60;99.90
15328;DHT22;7764;51.430;6.840;2024-01-07T19:29:47;0.50;99.90
15328;DHT22;7764;51.430;6.840;2024-01-07T19:32:14;0.60;99.90
15328;DHT22;7764;51.430;6.840;2024-01-07T19:34:41;0.60;99.90
15328;DHT22;7764;51.430;6.840;2024-01-07T19:37:07;0.30;99.90
15328;DHT22;7764;51.430;6.840;2024-01-07T19:39:34;0.50;99.90
15328;DHT22;7764;51.430;6.840;2024-01-07T19:42:01;0.20;99.90